Details From KPSK - NEW RIVER VALLEY
To KRMN - STAFFORD RGNL
Flight Number -
Tags generated
Created
Modified
Stats Distance 171 nm / 317 km
Max Altitude 17,700 ft / 5,395 m
Waypoints 6
Social Downloads 0
Likes 0
Share VATSIM

Download

Looking for another format? Having issues loading an existing format? Contact us
Advertisement - Login to hide

Notes

Basic altitude profile: - Ascent Rate: 2500ft/min - Ascent Speed: 250kts - Cruise Altitude: 35000ft - Cruise Speed: 420kts - Descent Rate: 1500ft/min - Descent Speed: 250kts Options: - Use NATs: yes - Use PACOTS: yes - Use low airways: yes - Use high airways: yes

Route

KPSK ROA V375 RADIA KRMN

ID Type Via Altitude Latitude Longitude Leg Dist Tot Dist Heading (true) Name
O KPSK APT - 0 ft / 0 m 37.13735˚ -80.67848˚ - 0 nm - NEW RIVER VALLEY
ROA VOR - 11,200 ft / 3,414 m 37.34347˚ -80.07039˚ 31 nm 31 nm 67° / 67° ROANOKE VORTAC
FOSER FIX V375 (AWY-LO) 15,700 ft / 4,785 m 37.42875˚ -79.83308˚ 12 nm 44 nm 66° / 66° -
PROSE FIX V375 (AWY-LO) 17,700 ft / 5,395 m 37.46664˚ -79.72707˚ 5 nm 49 nm 66° / 66° -
RADIA FIX V375 (AWY-LO) 17,000 ft / 5,182 m 37.60454˚ -79.33801˚ 20 nm 69 nm 66° / 66° -
O KRMN APT - 0 ft / 0 m 38.39810˚ -77.45547˚ 101 nm 170 nm 61° / 62° STAFFORD RGNL

Altitude Profile

Advertisement - Login to hide

Weather


0- 5 10 15 20 25 30 35+ Temperature / ° C

Clouds and Precipitation
Forecast for 2017-12-17 06:00 UTC. Updated an hour ago

Ground ~20,000 ft ~40,000 ft Winds

KPSK

Details ICAO KPSK
Name NEW RIVER VALLEY
Region United States
Timezone America/New_York (UTC-5.0)
Stats Elevation 2,105 ft / 642 m (AMSL)
Location 37.137346° -80.678483°
Runways 1
Magnetic Variation 8.198° W

METAR

KPSK 170235Z AUTO 18003KT 10SM CLR 01/M04 A3020 RMK AO2 T00131042

Decode

TAF

Not found

Departure Runways

ID Width Length Bearing (true) Bearing (mag) Surface Threshold Offset Overrun Length
06 150 ft / 46 m 6,198 ft / 1,889 m 51.99° 60.19° Asphalt 0 ft / 0 m 800 ft / 244 m
24 150 ft / 46 m 6,198 ft / 1,889 m 232.00° 240.20° Asphalt 0 ft / 0 m 0 ft / 0 m

KRMN

Details ICAO KRMN
Name STAFFORD RGNL
Region United States
Timezone America/New_York (UTC-5.0)
Stats Elevation 211 ft / 64 m (AMSL)
Location 38.398096° -77.455465°
Runways 1
Magnetic Variation 10.480° W

METAR

KRMN 170215Z AUTO 00000KT 10SM CLR 03/M04 A3022 RMK AO2 T00341036

Decode

TAF

Not found

Destination Runways

ID Width Length Bearing (true) Bearing (mag) Surface Threshold Offset Overrun Length
15 100 ft / 30 m 5,001 ft / 1,524 m 139.27° 149.75° Asphalt 0 ft / 0 m 0 ft / 0 m
33 100 ft / 30 m 5,001 ft / 1,524 m 319.28° 329.76° Asphalt 0 ft / 0 m 0 ft / 0 m

Approach Navaids

Runway Type Ident Frequency Range Bearing (true) Bearing (mag) Slope Elevation
33 Localiser IRMN 108.75 MHz 18 nm / 33 km 319.26° 329.74° - 218 ft / 66 m (AMSL)
33 Glidescope IRMN 108.75 MHz 10 nm / 19 km 319.28° 329.76° 3.00° 175 ft / 53 m (AMSL)
33 DME IRMN 108.75 MHz 18 nm / 33 km - - - 226 ft / 69 m (AMSL)

Popular Alternatives